Wien — DB8145 — position and weather

sailwx.info

Track history (hours):
 
Tides and Currents Weather Stations Pressure Air Temp Water Temp Dewpoint Dewpoint Depression Visibility Wind Speed Wind Dir Waves Ship Positions

Wien

Last reported at 2018-Jun-18 13:55 UTC. Time now 2018-Jun-19 18:27 UTC.
Position N 47°44' E 017°54'.

Length 196 m; draft 0.2 m.

Type: Ship. MMSI: 211644170.

Date/timePositionNaut miles runAvg speedWind from/ knotsBaromVisibWave heightAir tempDewpointWater temp
2018-Jun-18 13:55N 47°44' E 017°54'5 9.2
2018-Jun-18 13:26N 47°44' E 017°47'12 8.9
2018-Jun-18 12:04N 47°52' E 017°33'1 5.9
2018-Jun-18 11:55N 47°53' E 017°32'0 0.3
2018-Jun-18 11:30N 47°53' E 017°32'0 0.7
2018-Jun-18 11:00N 47°53' E 017°32'2 4.2
2018-Jun-18 10:30N 47°55' E 017°30'4 7.4
2018-Jun-18 10:00N 47°57' E 017°26'4 7.2
2018-Jun-18 09:30N 47°60' E 017°22'3 6.7
2018-Jun-18 09:00N 48°01' E 017°17'4 7.4
2018-Jun-18 08:30N 48°03' E 017°12'4 7.9
2018-Jun-18 08:00N 48°06' E 017°09'3 6.8
2018-Jun-18 07:30N 48°08' E 017°05'5 9.6
2018-Jun-18 06:57N 48°10' E 016°58'20 7.4
2018-Jun-18 04:17N 48°11' E 016°28'85 4.9
2018-Jun-17 11:01N 48°16' E 014°22'0 7.2
2018-Jun-17 11:00N 48°16' E 014°22'0 0.4
2018-Jun-17 10:30N 48°16' E 014°21'1 1.0
2018-Jun-17 10:00N 48°17' E 014°21'0 0.0
2018-Jun-17 09:30N 48°17' E 014°21'0 0.0
2018-Jun-17 09:00N 48°17' E 014°21'0 0.0
2018-Jun-17 08:30N 48°17' E 014°21'0 0.0
2018-Jun-17 08:00N 48°17' E 014°21'1 1.9
2018-Jun-17 07:30N 48°18' E 014°20'0 0.0
2018-Jun-17 07:00N 48°18' E 014°20'0 0.0
2018-Jun-17 06:30N 48°18' E 014°20'0 0.0
2018-Jun-17 06:00N 48°18' E 014°20'0 0.0
2018-Jun-17 05:30N 48°18' E 014°20'0 0.0
2018-Jun-17 05:00N 48°18' E 014°20'0 0.0
2018-Jun-17 04:30N 48°18' E 014°20'0 0.0
2018-Jun-17 04:00N 48°18' E 014°20'1 1.1
2018-Jun-17 03:30N 48°17' E 014°21'1 2.3
2018-Jun-17 02:59N 48°16' E 014°22'0 0.1
2018-Jun-17 02:18N 48°16' E 014°22'1 1.0
2018-Jun-17 01:48N 48°17' E 014°21'0 0.2
2018-Jun-17 01:28N 48°17' E 014°21'84 2.0
2018-Jun-15 06:25N 48°11' E 016°28'1 1.6
2018-Jun-15 05:32N 48°10' E 016°29'0 3.4
2018-Jun-15 05:29N 48°10' E 016°29'12 2.3
2018-Jun-15 00:01N 48°07' E 016°47'0 2.8
2018-Jun-15 00:00N 48°07' E 016°47'4 2.9
2018-Jun-14 22:34N 48°08' E 016°53'0 3.1
2018-Jun-14 22:30N 48°08' E 016°53'2 3.0
2018-Jun-14 22:00N 48°09' E 016°55'1 2.5
2018-Jun-14 21:25N 48°10' E 016°57'1 2.2
2018-Jun-14 20:51N 48°10' E 016°59'1 2.8
2018-Jun-14 20:29N 48°10' E 017°00'1 2.8
2018-Jun-14 20:00N 48°09' E 017°01'2 2.9
2018-Jun-14 19:25N 48°09' E 017°04'1 2.8
2018-Jun-14 18:59N 48°08' E 017°06'0 0.0
2018-Jun-14 18:26N 48°08' E 017°06'0 0.0
2018-Jun-14 18:00N 48°08' E 017°06'1 2.0
2018-Jun-14 17:29N 48°08' E 017°07'2 3.2
2018-Jun-14 17:00N 48°07' E 017°09'2 2.5
2018-Jun-14 16:21N 48°06' E 017°09'0 0.6
2018-Jun-14 15:58N 48°05' E 017°09'1 1.4
2018-Jun-14 15:29N 48°05' E 017°09'2 3.1
2018-Jun-14 15:00N 48°04' E 017°11'2 3.7
2018-Jun-14 14:29N 48°03' E 017°13'2 4.0
2018-Jun-14 14:00N 48°01' E 017°15'2 4.7
2018-Jun-14 13:30N 48°00' E 017°18'3 5.2
2018-Jun-14 13:00N 47°59' E 017°22'3 5.1
2018-Jun-14 12:30N 47°58' E 017°25'3 5.2
2018-Jun-14 12:00N 47°56' E 017°28'3 5.4
2018-Jun-14 11:30N 47°54' E 017°31'2 3.2
2018-Jun-14 11:00N 47°53' E 017°32'0 0.1
2018-Jun-14 10:30N 47°53' E 017°32'5 1.7
2018-Jun-14 07:47N 47°49' E 017°37'2 3.8
2018-Jun-14 07:22N 47°48' E 017°38'2 3.6
2018-Jun-14 06:56N 47°47' E 017°40'59 1.9
2018-Jun-13 00:33N 47°36' E 019°06'0 3.5
2018-Jun-13 00:30N 47°36' E 019°05'2 3.3
2018-Jun-13 00:00N 47°35' E 019°04'2 3.4
2018-Jun-12 23:30N 47°33' E 019°04'2 3.3
2018-Jun-12 23:00N 47°32' E 019°03'2 3.6
2018-Jun-12 22:30N 47°30' E 019°03'2 3.8
2018-Jun-12 22:00N 47°28' E 019°04'1 1.3
2018-Jun-12 21:30N 47°28' E 019°04'0 0.4
2018-Jun-12 21:00N 47°27' E 019°04'1 1.6
2018-Jun-12 20:30N 47°27' E 019°03'0 0.0
2018-Jun-12 20:00N 47°27' E 019°03'0 0.0
2018-Jun-12 19:30N 47°27' E 019°03'1 1.4
2018-Jun-12 19:00N 47°26' E 019°03'1 2.8
2018-Jun-12 18:30N 47°25' E 019°03'2 3.5
2018-Jun-12 17:58N 47°23' E 019°01'1 0.3
2018-Jun-12 15:28N 47°23' E 018°60'4 8.8
2018-Jun-12 15:00N 47°27' E 019°03'1 1.8
2018-Jun-12 14:30N 47°27' E 019°04'1 1.7
2018-Jun-12 14:00N 47°27' E 019°03'1 3.0
2018-Jun-12 13:30N 47°25' E 019°03'2 3.8
2018-Jun-12 12:55N 47°23' E 019°01'2 3.1
2018-Jun-12 12:18N 47°23' E 018°58'1 2.6
2018-Jun-12 11:59N 47°23' E 018°59'4 8.3
2018-Jun-12 11:30N 47°26' E 019°03'1 1.1
2018-Jun-12 11:00N 47°27' E 019°03'0 0.0
2018-Jun-12 10:30N 47°27' E 019°03'0 0.0
2018-Jun-12 10:00N 47°27' E 019°03'0 0.0
2018-Jun-12 09:30N 47°27' E 019°03'0 0.0
2018-Jun-12 09:00N 47°27' E 019°03'0 0.0
2018-Jun-12 08:30N 47°27' E 019°03'0 0.0
2018-Jun-12 08:00N 47°27' E 019°03'0 0.0
2018-Jun-12 07:30N 47°27' E 019°03'0 0.0
2018-Jun-12 07:00N 47°27' E 019°03'0 0.0
2018-Jun-12 06:30N 47°27' E 019°03'0 0.0
2018-Jun-12 06:00N 47°27' E 019°03'0 0.0
2018-Jun-12 05:29N 47°27' E 019°03'0 0.0
2018-Jun-12 05:00N 47°27' E 019°03'0 0.0
2018-Jun-12 04:30N 47°27' E 019°03'0 0.0
2018-Jun-12 03:59N 47°27' E 019°03'0 0.0
2018-Jun-12 03:30N 47°27' E 019°03'0 0.0
2018-Jun-12 02:59N 47°27' E 019°03'0 0.0
2018-Jun-12 02:29N 47°27' E 019°03'0 0.0
2018-Jun-12 02:00N 47°27' E 019°03'0 0.0
2018-Jun-12 01:30N 47°27' E 019°03'0 0.0
2018-Jun-12 01:00N 47°27' E 019°03'0 0.0
2018-Jun-12 00:30N 47°27' E 019°03'0 0.0
2018-Jun-12 00:00N 47°27' E 019°03'0 0.0
2018-Jun-11 23:30N 47°27' E 019°03'0 0.0
2018-Jun-11 23:00N 47°27' E 019°03'0 0.0
2018-Jun-11 22:30N 47°27' E 019°03'0 0.0
2018-Jun-11 22:00N 47°27' E 019°03'0 0.0
2018-Jun-11 21:30N 47°27' E 019°03'0 0.0
2018-Jun-11 21:00N 47°27' E 019°03'0 0.0
2018-Jun-11 20:30N 47°27' E 019°03'0 0.0
2018-Jun-11 20:00N 47°27' E 019°03'0 0.0
2018-Jun-11 19:30N 47°27' E 019°03'0 0.0
2018-Jun-11 19:00N 47°27' E 019°03'0 0.0
2018-Jun-11 18:30N 47°27' E 019°03'0 0.0
2018-Jun-11 18:00N 47°27' E 019°03'0 0.0
2018-Jun-11 17:30N 47°27' E 019°03'0 0.0
2018-Jun-11 17:00N 47°27' E 019°03'0 0.0
2018-Jun-11 16:30N 47°27' E 019°03'0 0.0
2018-Jun-11 16:00N 47°27' E 019°03'0 0.0
2018-Jun-11 15:30N 47°27' E 019°03'0 0.0
2018-Jun-11 15:00N 47°27' E 019°03'0 0.0
2018-Jun-11 14:30N 47°27' E 019°03'0 0.0
2018-Jun-11 14:00N 47°27' E 019°03'0 0.0
2018-Jun-11 13:30N 47°27' E 019°03'0 0.0
2018-Jun-11 13:00N 47°27' E 019°03'0 0.1
2018-Jun-11 12:30N 47°27' E 019°03'0 0.0
2018-Jun-11 12:00N 47°27' E 019°03'0 0.0
2018-Jun-11 11:30N 47°27' E 019°03'0 0.0
2018-Jun-11 11:00N 47°27' E 019°03'0 0.0
2018-Jun-11 10:30N 47°27' E 019°03'0 0.0
2018-Jun-11 10:00N 47°27' E 019°03'0 0.0
2018-Jun-11 09:30N 47°27' E 019°03'0 0.0
2018-Jun-11 09:00N 47°27' E 019°03'0 0.0
2018-Jun-11 08:30N 47°27' E 019°03'0 0.0
2018-Jun-11 08:00N 47°27' E 019°03'0 0.0
2018-Jun-11 07:30N 47°27' E 019°03'0 0.0
2018-Jun-11 07:00N 47°27' E 019°03'0 0.0
2018-Jun-11 06:30N 47°27' E 019°03'0 0.0
2018-Jun-11 05:57N 47°27' E 019°03'0 0.0
2018-Jun-11 05:30N 47°27' E 019°03'0 0.0
2018-Jun-11 05:00N 47°27' E 019°03'0 0.0
2018-Jun-11 04:30N 47°27' E 019°03'0 0.0
2018-Jun-11 04:00N 47°27' E 019°03'0 0.0
2018-Jun-11 03:30N 47°27' E 019°03'0 0.0
2018-Jun-11 03:00N 47°27' E 019°03'0 0.0
2018-Jun-11 02:30N 47°27' E 019°03'0 0.0
2018-Jun-11 02:00N 47°27' E 019°03'0 0.0
2018-Jun-11 01:30N 47°27' E 019°03'0 0.0
2018-Jun-11 01:00N 47°27' E 019°03'0 0.0
2018-Jun-11 00:30N 47°27' E 019°03'0 0.0
2018-Jun-11 00:00N 47°27' E 019°03'0 0.0
2018-Jun-10 23:30N 47°27' E 019°03'0 0.0
2018-Jun-10 22:59N 47°27' E 019°03'0 0.0
2018-Jun-10 22:30N 47°27' E 019°03'0 0.8
2018-Jun-10 22:00N 47°26' E 019°03'2 4.5
2018-Jun-10 21:30N 47°24' E 019°02'3 2.2
2018-Jun-10 20:14N 47°23' E 018°59'2 6.8
2018-Jun-10 19:56N 47°23' E 019°01'3 7.4
2018-Jun-10 19:30N 47°27' E 019°03'0 0.4
2018-Jun-10 19:00N 47°27' E 019°03'0 0.1
2018-Jun-10 18:30N 47°27' E 019°03'1 2.8
2018-Jun-10 18:00N 47°25' E 019°03'86 2.0
2018-Jun-08 22:51N 46°01' E 018°41'1 0.7
2018-Jun-08 21:39N 46°00' E 018°41'0 0.0
2018-Jun-08 21:27N 46°00' E 018°41'0 0.0
2018-Jun-08 20:51N 46°00' E 018°41'8 1.2
2018-Jun-08 14:04N 45°54' E 018°49'0 3.1
2018-Jun-08 14:00N 45°54' E 018°49'  
Track history (hours):
 
Tides and Currents Weather Stations Pressure Air Temp Water Temp Dewpoint Dewpoint Depression Visibility Wind Speed Wind Dir Waves Ship Positions

Wien

Last reported at 2018-Jun-18 13:55 UTC. Time now 2018-Jun-19 18:27 UTC.
Position N 47°44' E 017°54'.

Length 196 m; draft 0.2 m.

Type: Ship. MMSI: 211644170.

Date/timePositionNaut miles runAvg speedWind from/ knotsBaromVisibWave heightAir tempDewpointWater temp
2018-Jun-18 13:55N 47°44' E 017°54'5 9.2
2018-Jun-18 13:26N 47°44' E 017°47'12 8.9
2018-Jun-18 12:04N 47°52' E 017°33'1 5.9
2018-Jun-18 11:55N 47°53' E 017°32'0 0.3
2018-Jun-18 11:30N 47°53' E 017°32'0 0.7
2018-Jun-18 11:00N 47°53' E 017°32'2 4.2
2018-Jun-18 10:30N 47°55' E 017°30'4 7.4
2018-Jun-18 10:00N 47°57' E 017°26'4 7.2
2018-Jun-18 09:30N 47°60' E 017°22'3 6.7
2018-Jun-18 09:00N 48°01' E 017°17'4 7.4
2018-Jun-18 08:30N 48°03' E 017°12'4 7.9
2018-Jun-18 08:00N 48°06' E 017°09'3 6.8
2018-Jun-18 07:30N 48°08' E 017°05'5 9.6
2018-Jun-18 06:57N 48°10' E 016°58'20 7.4
2018-Jun-18 04:17N 48°11' E 016°28'85 4.9
2018-Jun-17 11:01N 48°16' E 014°22'0 7.2
2018-Jun-17 11:00N 48°16' E 014°22'0 0.4
2018-Jun-17 10:30N 48°16' E 014°21'1 1.0
2018-Jun-17 10:00N 48°17' E 014°21'0 0.0
2018-Jun-17 09:30N 48°17' E 014°21'0 0.0
2018-Jun-17 09:00N 48°17' E 014°21'0 0.0
2018-Jun-17 08:30N 48°17' E 014°21'0 0.0
2018-Jun-17 08:00N 48°17' E 014°21'1 1.9
2018-Jun-17 07:30N 48°18' E 014°20'0 0.0
2018-Jun-17 07:00N 48°18' E 014°20'0 0.0
2018-Jun-17 06:30N 48°18' E 014°20'0 0.0
2018-Jun-17 06:00N 48°18' E 014°20'0 0.0
2018-Jun-17 05:30N 48°18' E 014°20'0 0.0
2018-Jun-17 05:00N 48°18' E 014°20'0 0.0
2018-Jun-17 04:30N 48°18' E 014°20'0 0.0
2018-Jun-17 04:00N 48°18' E 014°20'1 1.1
2018-Jun-17 03:30N 48°17' E 014°21'1 2.3
2018-Jun-17 02:59N 48°16' E 014°22'0 0.1
2018-Jun-17 02:18N 48°16' E 014°22'1 1.0
2018-Jun-17 01:48N 48°17' E 014°21'0 0.2
2018-Jun-17 01:28N 48°17' E 014°21'84 2.0
2018-Jun-15 06:25N 48°11' E 016°28'1 1.6
2018-Jun-15 05:32N 48°10' E 016°29'0 3.4
2018-Jun-15 05:29N 48°10' E 016°29'12 2.3
2018-Jun-15 00:01N 48°07' E 016°47'0 2.8
2018-Jun-15 00:00N 48°07' E 016°47'4 2.9
2018-Jun-14 22:34N 48°08' E 016°53'0 3.1
2018-Jun-14 22:30N 48°08' E 016°53'2 3.0
2018-Jun-14 22:00N 48°09' E 016°55'1 2.5
2018-Jun-14 21:25N 48°10' E 016°57'1 2.2
2018-Jun-14 20:51N 48°10' E 016°59'1 2.8
2018-Jun-14 20:29N 48°10' E 017°00'1 2.8
2018-Jun-14 20:00N 48°09' E 017°01'2 2.9
2018-Jun-14 19:25N 48°09' E 017°04'1 2.8
2018-Jun-14 18:59N 48°08' E 017°06'0 0.0
2018-Jun-14 18:26N 48°08' E 017°06'0 0.0
2018-Jun-14 18:00N 48°08' E 017°06'1 2.0
2018-Jun-14 17:29N 48°08' E 017°07'2 3.2
2018-Jun-14 17:00N 48°07' E 017°09'2 2.5
2018-Jun-14 16:21N 48°06' E 017°09'0 0.6
2018-Jun-14 15:58N 48°05' E 017°09'1 1.4
2018-Jun-14 15:29N 48°05' E 017°09'2 3.1
2018-Jun-14 15:00N 48°04' E 017°11'2 3.7
2018-Jun-14 14:29N 48°03' E 017°13'2 4.0
2018-Jun-14 14:00N 48°01' E 017°15'2 4.7
2018-Jun-14 13:30N 48°00' E 017°18'3 5.2
2018-Jun-14 13:00N 47°59' E 017°22'3 5.1
2018-Jun-14 12:30N 47°58' E 017°25'3 5.2
2018-Jun-14 12:00N 47°56' E 017°28'3 5.4
2018-Jun-14 11:30N 47°54' E 017°31'2 3.2
2018-Jun-14 11:00N 47°53' E 017°32'0 0.1
2018-Jun-14 10:30N 47°53' E 017°32'5 1.7
2018-Jun-14 07:47N 47°49' E 017°37'2 3.8
2018-Jun-14 07:22N 47°48' E 017°38'2 3.6
2018-Jun-14 06:56N 47°47' E 017°40'59 1.9
2018-Jun-13 00:33N 47°36' E 019°06'0 3.5
2018-Jun-13 00:30N 47°36' E 019°05'2 3.3
2018-Jun-13 00:00N 47°35' E 019°04'2 3.4
2018-Jun-12 23:30N 47°33' E 019°04'2 3.3
2018-Jun-12 23:00N 47°32' E 019°03'2 3.6
2018-Jun-12 22:30N 47°30' E 019°03'2 3.8
2018-Jun-12 22:00N 47°28' E 019°04'1 1.3
2018-Jun-12 21:30N 47°28' E 019°04'0 0.4
2018-Jun-12 21:00N 47°27' E 019°04'1 1.6
2018-Jun-12 20:30N 47°27' E 019°03'0 0.0
2018-Jun-12 20:00N 47°27' E 019°03'0 0.0
2018-Jun-12 19:30N 47°27' E 019°03'1 1.4
2018-Jun-12 19:00N 47°26' E 019°03'1 2.8
2018-Jun-12 18:30N 47°25' E 019°03'2 3.5
2018-Jun-12 17:58N 47°23' E 019°01'1 0.3
2018-Jun-12 15:28N 47°23' E 018°60'4 8.8
2018-Jun-12 15:00N 47°27' E 019°03'1 1.8
2018-Jun-12 14:30N 47°27' E 019°04'1 1.7
2018-Jun-12 14:00N 47°27' E 019°03'1 3.0
2018-Jun-12 13:30N 47°25' E 019°03'2 3.8
2018-Jun-12 12:55N 47°23' E 019°01'2 3.1
2018-Jun-12 12:18N 47°23' E 018°58'1 2.6
2018-Jun-12 11:59N 47°23' E 018°59'4 8.3
2018-Jun-12 11:30N 47°26' E 019°03'1 1.1
2018-Jun-12 11:00N 47°27' E 019°03'0 0.0
2018-Jun-12 10:30N 47°27' E 019°03'0 0.0
2018-Jun-12 10:00N 47°27' E 019°03'0 0.0
2018-Jun-12 09:30N 47°27' E 019°03'0 0.0
2018-Jun-12 09:00N 47°27' E 019°03'0 0.0
2018-Jun-12 08:30N 47°27' E 019°03'0 0.0
2018-Jun-12 08:00N 47°27' E 019°03'0 0.0
2018-Jun-12 07:30N 47°27' E 019°03'0 0.0
2018-Jun-12 07:00N 47°27' E 019°03'0 0.0
2018-Jun-12 06:30N 47°27' E 019°03'0 0.0
2018-Jun-12 06:00N 47°27' E 019°03'0 0.0
2018-Jun-12 05:29N 47°27' E 019°03'0 0.0
2018-Jun-12 05:00N 47°27' E 019°03'0 0.0
2018-Jun-12 04:30N 47°27' E 019°03'0 0.0
2018-Jun-12 03:59N 47°27' E 019°03'0 0.0
2018-Jun-12 03:30N 47°27' E 019°03'0 0.0
2018-Jun-12 02:59N 47°27' E 019°03'0 0.0
2018-Jun-12 02:29N 47°27' E 019°03'0 0.0
2018-Jun-12 02:00N 47°27' E 019°03'0 0.0
2018-Jun-12 01:30N 47°27' E 019°03'0 0.0
2018-Jun-12 01:00N 47°27' E 019°03'0 0.0
2018-Jun-12 00:30N 47°27' E 019°03'0 0.0
2018-Jun-12 00:00N 47°27' E 019°03'0 0.0
2018-Jun-11 23:30N 47°27' E 019°03'0 0.0
2018-Jun-11 23:00N 47°27' E 019°03'0 0.0
2018-Jun-11 22:30N 47°27' E 019°03'0 0.0
2018-Jun-11 22:00N 47°27' E 019°03'0 0.0
2018-Jun-11 21:30N 47°27' E 019°03'0 0.0
2018-Jun-11 21:00N 47°27' E 019°03'0 0.0
2018-Jun-11 20:30N 47°27' E 019°03'0 0.0
2018-Jun-11 20:00N 47°27' E 019°03'0 0.0
2018-Jun-11 19:30N 47°27' E 019°03'0 0.0
2018-Jun-11 19:00N 47°27' E 019°03'0 0.0
2018-Jun-11 18:30N 47°27' E 019°03'0 0.0
2018-Jun-11 18:00N 47°27' E 019°03'0 0.0
2018-Jun-11 17:30N 47°27' E 019°03'0 0.0
2018-Jun-11 17:00N 47°27' E 019°03'0 0.0
2018-Jun-11 16:30N 47°27' E 019°03'0 0.0
2018-Jun-11 16:00N 47°27' E 019°03'0 0.0
2018-Jun-11 15:30N 47°27' E 019°03'0 0.0
2018-Jun-11 15:00N 47°27' E 019°03'0 0.0
2018-Jun-11 14:30N 47°27' E 019°03'0 0.0
2018-Jun-11 14:00N 47°27' E 019°03'0 0.0
2018-Jun-11 13:30N 47°27' E 019°03'0 0.0
2018-Jun-11 13:00N 47°27' E 019°03'0 0.1
2018-Jun-11 12:30N 47°27' E 019°03'0 0.0
2018-Jun-11 12:00N 47°27' E 019°03'0 0.0
2018-Jun-11 11:30N 47°27' E 019°03'0 0.0
2018-Jun-11 11:00N 47°27' E 019°03'0 0.0
2018-Jun-11 10:30N 47°27' E 019°03'0 0.0
2018-Jun-11 10:00N 47°27' E 019°03'0 0.0
2018-Jun-11 09:30N 47°27' E 019°03'0 0.0
2018-Jun-11 09:00N 47°27' E 019°03'0 0.0
2018-Jun-11 08:30N 47°27' E 019°03'0 0.0
2018-Jun-11 08:00N 47°27' E 019°03'0 0.0
2018-Jun-11 07:30N 47°27' E 019°03'0 0.0
2018-Jun-11 07:00N 47°27' E 019°03'0 0.0
2018-Jun-11 06:30N 47°27' E 019°03'0 0.0
2018-Jun-11 05:57N 47°27' E 019°03'0 0.0
2018-Jun-11 05:30N 47°27' E 019°03'0 0.0
2018-Jun-11 05:00N 47°27' E 019°03'0 0.0
2018-Jun-11 04:30N 47°27' E 019°03'0 0.0
2018-Jun-11 04:00N 47°27' E 019°03'0 0.0
2018-Jun-11 03:30N 47°27' E 019°03'0 0.0
2018-Jun-11 03:00N 47°27' E 019°03'0 0.0
2018-Jun-11 02:30N 47°27' E 019°03'0 0.0
2018-Jun-11 02:00N 47°27' E 019°03'0 0.0
2018-Jun-11 01:30N 47°27' E 019°03'0 0.0
2018-Jun-11 01:00N 47°27' E 019°03'0 0.0
2018-Jun-11 00:30N 47°27' E 019°03'0 0.0
2018-Jun-11 00:00N 47°27' E 019°03'0 0.0
2018-Jun-10 23:30N 47°27' E 019°03'0 0.0
2018-Jun-10 22:59N 47°27' E 019°03'0 0.0
2018-Jun-10 22:30N 47°27' E 019°03'0 0.8
2018-Jun-10 22:00N 47°26' E 019°03'2 4.5
2018-Jun-10 21:30N 47°24' E 019°02'3 2.2
2018-Jun-10 20:14N 47°23' E 018°59'2 6.8
2018-Jun-10 19:56N 47°23' E 019°01'3 7.4
2018-Jun-10 19:30N 47°27' E 019°03'0 0.4
2018-Jun-10 19:00N 47°27' E 019°03'0 0.1
2018-Jun-10 18:30N 47°27' E 019°03'1 2.8
2018-Jun-10 18:00N 47°25' E 019°03'86 2.0
2018-Jun-08 22:51N 46°01' E 018°41'1 0.7
2018-Jun-08 21:39N 46°00' E 018°41'0 0.0
2018-Jun-08 21:27N 46°00' E 018°41'0 0.0
2018-Jun-08 20:51N 46°00' E 018°41'8 1.2
2018-Jun-08 14:04N 45°54' E 018°49'0 3.1
2018-Jun-08 14:00N 45°54' E 018°49'  

Dump ship's entire track history